Time;durP1;ratioP1;P1;durP2;ratioP2;P2;SDS_P1;SDS_P2;PMS_P1;PMS_P2;Temp;Humidity;BMP_temperature;BMP_pressure;BME280_temperature;BME280_humidity;BME280_pressure;Samples;Min_cycle;Max_cycle;Signal;HPM_P1;HPM_P2
2023/09/07 00:01:09;;;;;;;4.63;2.95;;;;;;;;;;5092297;28;20071;-62
2023/09/07 00:03:40;;;;;;;6.10;3.03;;;;;;;;;;5092775;28;20048;-63
2023/09/07 00:06:07;;;;;;;3.83;2.72;;;;;;;;;;5091831;28;20047;-63
2023/09/07 00:08:33;;;;;;;2.90;2.60;;;;;;;;;;5092319;28;20071;-63
2023/09/07 00:11:05;;;;;;;4.78;2.90;;;;;;;;;;5092123;28;20508;-63
2023/09/07 00:13:32;;;;;;;5.78;3.08;;;;;;;;;;5091942;28;20089;-63
2023/09/07 00:16:01;;;;;;;4.82;2.88;;;;;;;;;;5088185;28;20051;-63
2023/09/07 00:18:27;;;;;;;4.85;3.10;;;;;;;;;;5081893;28;20040;-63
2023/09/07 00:20:53;;;;;;;3.53;2.95;;;;;;;;;;5091840;28;20036;-63
2023/09/07 00:23:19;;;;;;;6.53;3.22;;;;;;;;;;5091857;28;20043;-63
2023/09/07 00:25:46;;;;;;;4.75;3.08;;;;;;;;;;5092315;28;20044;-63
2023/09/07 00:28:12;;;;;;;5.82;2.92;;;;;;;;;;5091459;28;20896;-63
2023/09/07 00:30:39;;;;;;;4.70;3.25;;;;;;;;;;5091239;28;20051;-63
2023/09/07 00:33:05;;;;;;;9.15;2.95;;;;;;;;;;5090764;28;20052;-62
2023/09/07 00:35:31;;;;;;;3.47;3.10;;;;;;;;;;5091193;28;20044;-62
2023/09/07 00:37:57;;;;;;;5.07;3.40;;;;;;;;;;5091971;28;20071;-62
2023/09/07 00:40:23;;;;;;;3.22;2.92;;;;;;;;;;5091286;28;20036;-63
2023/09/07 00:42:49;;;;;;;5.18;3.10;;;;;;;;;;5091595;28;20032;-63
2023/09/07 00:45:15;;;;;;;4.57;3.30;;;;;;;;;;5091643;28;20032;-63
2023/09/07 00:47:42;;;;;;;4.95;3.08;;;;;;;;;;5091507;28;20044;-63
2023/09/07 00:50:08;;;;;;;5.78;3.08;;;;;;;;;;5091177;28;20481;-63
2023/09/07 00:52:35;;;;;;;3.83;3.25;;;;;;;;;;5090531;28;20052;-63
2023/09/07 00:55:04;;;;;;;4.57;3.10;;;;;;;;;;5091461;28;20447;-62
2023/09/07 00:57:30;;;;;;;4.55;3.00;;;;;;;;;;5090752;28;20058;-62
2023/09/07 00:59:56;;;;;;;6.18;3.53;;;;;;;;;;5091616;28;20374;-62
2023/09/07 01:02:22;;;;;;;4.88;3.17;;;;;;;;;;5091165;28;20036;-63
2023/09/07 01:04:48;;;;;;;4.40;2.97;;;;;;;;;;5091863;28;20036;-63
2023/09/07 01:07:17;;;;;;;4.50;3.45;;;;;;;;;;5090971;28;20075;-63
2023/09/07 01:09:44;;;;;;;6.07;3.65;;;;;;;;;;5091536;28;20077;-63
2023/09/07 01:12:14;;;;;;;7.00;3.60;;;;;;;;;;5091137;28;20040;-63
2023/09/07 01:14:40;;;;;;;4.53;3.70;;;;;;;;;;5091401;28;20044;-63
2023/09/07 01:17:07;;;;;;;5.10;3.50;;;;;;;;;;5077539;28;20094;-63
2023/09/07 01:19:33;;;;;;;3.65;3.20;;;;;;;;;;5073530;28;20090;-63
2023/09/07 01:21:59;;;;;;;6.82;3.13;;;;;;;;;;5090803;28;20054;-63
2023/09/07 01:24:26;;;;;;;3.70;3.30;;;;;;;;;;5091198;28;20040;-63
2023/09/07 01:26:52;;;;;;;4.03;3.30;;;;;;;;;;5091301;28;20040;-63
2023/09/07 01:29:18;;;;;;;3.40;3.05;;;;;;;;;;5090521;28;20201;-62
2023/09/07 01:31:44;;;;;;;3.97;3.50;;;;;;;;;;5091512;28;20514;-63
2023/09/07 01:34:10;;;;;;;8.10;3.42;;;;;;;;;;5091033;28;20040;-63
2023/09/07 01:36:36;;;;;;;6.55;3.38;;;;;;;;;;5091130;28;20492;-62
2023/09/07 01:39:05;;;;;;;6.75;4.00;;;;;;;;;;5091016;28;20100;-62
2023/09/07 01:41:33;;;;;;;6.82;3.47;;;;;;;;;;5090820;28;20040;-62
2023/09/07 01:44:00;;;;;;;7.82;3.28;;;;;;;;;;5090996;28;20044;-62
2023/09/07 01:46:26;;;;;;;4.57;3.58;;;;;;;;;;5091520;28;20634;-62
2023/09/07 01:48:52;;;;;;;6.18;3.80;;;;;;;;;;5095094;28;20043;-62
2023/09/07 01:51:18;;;;;;;4.50;3.53;;;;;;;;;;5094416;28;20047;-62
2023/09/07 01:53:44;;;;;;;6.45;3.80;;;;;;;;;;5095231;28;20431;-62
2023/09/07 01:56:10;;;;;;;5.60;3.80;;;;;;;;;;5094877;28;20071;-62
2023/09/07 01:58:37;;;;;;;3.83;3.25;;;;;;;;;;5094330;28;20531;-62
2023/09/07 02:01:03;;;;;;;5.05;3.97;;;;;;;;;;5094698;28;20058;-62
2023/09/07 02:03:29;;;;;;;5.90;3.85;;;;;;;;;;5095065;28;20483;-63
2023/09/07 02:05:55;;;;;;;6.75;3.90;;;;;;;;;;5094394;28;20063;-62
2023/09/07 02:08:21;;;;;;;6.22;3.78;;;;;;;;;;5094691;28;20084;-62
2023/09/07 02:10:48;;;;;;;5.45;3.75;;;;;;;;;;5094680;28;20051;-62
2023/09/07 02:13:14;;;;;;;8.10;3.72;;;;;;;;;;5093837;28;20036;-62
2023/09/07 02:15:40;;;;;;;7.05;3.85;;;;;;;;;;5093084;28;20195;-62
2023/09/07 02:18:06;;;;;;;6.40;3.92;;;;;;;;;;5084207;28;20047;-63
2023/09/07 02:20:32;;;;;;;6.88;3.90;;;;;;;;;;5094362;28;20043;-62
2023/09/07 02:22:58;;;;;;;6.32;3.80;;;;;;;;;;5092771;28;20091;-63
2023/09/07 02:25:24;;;;;;;7.32;3.80;;;;;;;;;;5094635;28;20036;-63
2023/09/07 02:27:51;;;;;;;8.45;3.90;;;;;;;;;;5093644;28;20055;-63
2023/09/07 02:30:17;;;;;;;5.30;4.20;;;;;;;;;;5093964;28;20139;-63
2023/09/07 02:32:43;;;;;;;5.45;3.70;;;;;;;;;;5094383;28;20051;-63
2023/09/07 02:35:09;;;;;;;7.35;4.40;;;;;;;;;;5093710;28;20676;-63
2023/09/07 02:37:38;;;;;;;4.65;4.15;;;;;;;;;;5094047;28;20052;-63
2023/09/07 02:40:09;;;;;;;7.63;3.75;;;;;;;;;;5093955;28;20035;-63
2023/09/07 02:42:35;;;;;;;7.43;4.25;;;;;;;;;;5093519;28;20044;-63
2023/09/07 02:45:01;;;;;;;7.07;4.57;;;;;;;;;;5092389;28;20039;-63
2023/09/07 02:47:27;;;;;;;5.65;4.75;;;;;;;;;;5094182;28;20040;-63
2023/09/07 02:49:53;;;;;;;6.22;3.58;;;;;;;;;;5092141;28;20090;-63
2023/09/07 02:52:20;;;;;;;5.78;4.30;;;;;;;;;;5093721;28;20058;-63
2023/09/07 02:54:46;;;;;;;6.05;4.10;;;;;;;;;;5093809;28;20054;-63
2023/09/07 02:57:12;;;;;;;5.15;4.32;;;;;;;;;;5091649;28;20040;-63
2023/09/07 02:59:38;;;;;;;5.43;4.13;;;;;;;;;;5092767;28;20038;-63
2023/09/07 03:02:04;;;;;;;8.75;4.65;;;;;;;;;;5093625;28;20581;-63
2023/09/07 03:04:30;;;;;;;6.22;4.55;;;;;;;;;;5093556;28;20036;-62
2023/09/07 03:06:57;;;;;;;5.35;4.15;;;;;;;;;;5093582;28;20048;-63
2023/09/07 03:09:23;;;;;;;6.78;3.92;;;;;;;;;;5093773;28;20048;-63
2023/09/07 03:11:49;;;;;;;7.22;4.88;;;;;;;;;;5092574;28;20043;-63
2023/09/07 03:14:15;;;;;;;6.70;4.13;;;;;;;;;;5092128;28;20055;-63
2023/09/07 03:16:41;;;;;;;8.02;4.13;;;;;;;;;;5081651;28;20048;-62
2023/09/07 03:19:07;;;;;;;5.70;4.15;;;;;;;;;;5074202;28;20207;-62
2023/09/07 03:21:33;;;;;;;7.22;4.22;;;;;;;;;;5093437;28;20071;-63
2023/09/07 03:23:59;;;;;;;7.65;4.05;;;;;;;;;;5093026;28;20036;-63
2023/09/07 03:26:25;;;;;;;8.48;4.47;;;;;;;;;;5093146;28;20032;-63
2023/09/07 03:28:52;;;;;;;7.43;4.53;;;;;;;;;;5092721;28;20091;-63
2023/09/07 03:31:18;;;;;;;7.93;4.30;;;;;;;;;;5093089;28;20048;-63
2023/09/07 03:33:44;;;;;;;5.72;4.35;;;;;;;;;;5092445;28;20555;-63
2023/09/07 03:36:13;;;;;;;5.32;4.80;;;;;;;;;;5093181;28;20043;-63
2023/09/07 03:38:39;;;;;;;8.55;4.78;;;;;;;;;;5091331;28;20063;-63
2023/09/07 03:41:05;;;;;;;5.93;4.70;;;;;;;;;;5092175;28;20043;-63
2023/09/07 03:43:31;;;;;;;6.30;4.60;;;;;;;;;;5093138;28;20393;-62
2023/09/07 03:45:58;;;;;;;7.90;4.72;;;;;;;;;;5092685;28;20044;-62
2023/09/07 03:48:24;;;;;;;5.53;4.45;;;;;;;;;;5092574;28;20060;-62
2023/09/07 03:50:50;;;;;;;7.88;4.93;;;;;;;;;;5092593;28;20378;-62
2023/09/07 03:53:16;;;;;;;5.95;4.20;;;;;;;;;;5092707;28;20047;-62
2023/09/07 03:55:43;;;;;;;5.15;4.50;;;;;;;;;;5090531;28;20040;-62
2023/09/07 03:58:12;;;;;;;5.53;4.72;;;;;;;;;;5092699;28;20382;-62
2023/09/07 04:00:41;;;;;;;8.35;4.85;;;;;;;;;;5092169;28;20109;-62
2023/09/07 04:03:10;;;;;;;7.57;4.75;;;;;;;;;;5090916;28;20044;-63
2023/09/07 04:05:39;;;;;;;6.55;4.80;;;;;;;;;;5092252;28;20051;-63
2023/09/07 04:08:05;;;;;;;7.97;5.38;;;;;;;;;;5091018;28;20078;-63
2023/09/07 04:10:31;;;;;;;8.00;5.00;;;;;;;;;;5091690;28;20089;-63
2023/09/07 04:12:57;;;;;;;6.28;5.65;;;;;;;;;;5092315;28;20413;-63
2023/09/07 04:15:25;;;;;;;6.45;4.85;;;;;;;;;;5092422;28;20048;-64
2023/09/07 04:17:51;;;;;;;7.35;5.53;;;;;;;;;;5080943;28;20399;-65
2023/09/07 04:20:17;;;;;;;7.10;5.53;;;;;;;;;;5091402;28;20040;-65
2023/09/07 04:22:43;;;;;;;10.73;5.53;;;;;;;;;;5091874;28;20035;-65
2023/09/07 04:25:09;;;;;;;5.85;5.25;;;;;;;;;;5091641;28;20501;-65
2023/09/07 04:27:35;;;;;;;7.72;5.13;;;;;;;;;;5090143;28;20063;-64
2023/09/07 04:30:02;;;;;;;8.07;5.20;;;;;;;;;;5091050;28;20052;-64
2023/09/07 04:32:28;;;;;;;10.05;6.68;;;;;;;;;;5091477;28;20105;-62
2023/09/07 04:34:55;;;;;;;9.70;6.43;;;;;;;;;;5091124;28;20487;-62
2023/09/07 04:37:21;;;;;;;8.60;6.00;;;;;;;;;;5091583;28;20052;-62
2023/09/07 04:39:51;;;;;;;11.65;6.63;;;;;;;;;;5090987;28;20059;-62
2023/09/07 04:42:17;;;;;;;9.48;6.55;;;;;;;;;;5091669;28;20474;-62
2023/09/07 04:44:43;;;;;;;8.35;5.90;;;;;;;;;;5091178;28;20047;-63
2023/09/07 04:47:10;;;;;;;7.68;6.22;;;;;;;;;;5091481;28;20131;-63
2023/09/07 04:49:36;;;;;;;8.02;6.10;;;;;;;;;;5091266;28;20032;-63
2023/09/07 04:52:02;;;;;;;7.90;5.88;;;;;;;;;;5091209;28;20382;-63
2023/09/07 04:54:28;;;;;;;8.50;6.00;;;;;;;;;;5091213;28;20520;-63
2023/09/07 04:56:54;;;;;;;6.45;5.47;;;;;;;;;;5091176;28;20046;-63
2023/09/07 04:59:20;;;;;;;7.53;5.40;;;;;;;;;;5090997;28;20040;-63
2023/09/07 05:01:46;;;;;;;8.00;5.57;;;;;;;;;;5090707;28;20421;-63
2023/09/07 05:04:12;;;;;;;6.80;5.75;;;;;;;;;;5091782;28;20115;-63
2023/09/07 05:06:40;;;;;;;11.05;6.25;;;;;;;;;;5091359;28;20119;-63
2023/09/07 05:09:06;;;;;;;7.75;6.18;;;;;;;;;;5091468;28;20051;-63
2023/09/07 05:11:34;;;;;;;8.80;6.15;;;;;;;;;;5091140;28;20039;-63
2023/09/07 05:14:01;;;;;;;6.72;5.82;;;;;;;;;;5090475;28;20047;-63
2023/09/07 05:16:27;;;;;;;7.07;6.05;;;;;;;;;;5082803;28;20099;-63
2023/09/07 05:18:53;;;;;;;11.70;6.20;;;;;;;;;;5074016;28;20057;-63
2023/09/07 05:21:19;;;;;;;8.23;6.10;;;;;;;;;;5091885;28;20069;-63
2023/09/07 05:23:47;;;;;;;8.98;6.25;;;;;;;;;;5095526;28;20062;-63
2023/09/07 05:26:13;;;;;;;10.90;6.10;;;;;;;;;;5095140;28;20040;-63
2023/09/07 05:28:43;;;;;;;7.57;6.45;;;;;;;;;;5095210;28;20040;-63
2023/09/07 05:31:09;;;;;;;7.63;5.60;;;;;;;;;;5095505;28;20405;-63
2023/09/07 05:33:35;;;;;;;8.52;6.15;;;;;;;;;;5094826;28;20170;-63
2023/09/07 05:36:01;;;;;;;8.05;5.97;;;;;;;;;;5094455;28;20522;-63
2023/09/07 05:38:27;;;;;;;8.32;5.72;;;;;;;;;;5093168;28;20402;-63
2023/09/07 05:40:54;;;;;;;7.15;6.05;;;;;;;;;;5093358;28;20036;-63
2023/09/07 05:43:21;;;;;;;6.78;5.70;;;;;;;;;;5094200;28;20047;-63
2023/09/07 05:45:47;;;;;;;7.10;6.05;;;;;;;;;;5093782;28;20044;-63
2023/09/07 05:48:13;;;;;;;7.35;6.10;;;;;;;;;;5093703;28;20055;-63
2023/09/07 05:50:39;;;;;;;10.50;6.32;;;;;;;;;;5093160;28;20036;-63
2023/09/07 05:53:05;;;;;;;8.23;5.78;;;;;;;;;;5094043;28;20097;-63
2023/09/07 05:55:31;;;;;;;8.65;6.40;;;;;;;;;;5093056;28;20383;-63
2023/09/07 05:57:57;;;;;;;9.18;6.47;;;;;;;;;;5094085;28;20070;-63
2023/09/07 06:00:23;;;;;;;10.73;6.28;;;;;;;;;;5092190;28;20039;-63
2023/09/07 06:02:50;;;;;;;9.68;6.75;;;;;;;;;;5093171;28;20032;-63
2023/09/07 06:05:16;;;;;;;8.55;6.05;;;;;;;;;;5093641;28;20032;-63
2023/09/07 06:07:42;;;;;;;9.88;7.20;;;;;;;;;;5092471;28;20051;-63
2023/09/07 06:10:08;;;;;;;8.65;7.22;;;;;;;;;;5093439;28;20047;-63
2023/09/07 06:12:34;;;;;;;8.07;6.82;;;;;;;;;;5094173;28;20044;-63
2023/09/07 06:15:01;;;;;;;10.48;6.32;;;;;;;;;;5094329;28;20047;-63
2023/09/07 06:17:27;;;;;;;10.45;6.70;;;;;;;;;;5088039;28;20044;-63
2023/09/07 06:19:54;;;;;;;8.25;6.32;;;;;;;;;;5094553;28;20040;-63
2023/09/07 06:22:20;;;;;;;9.40;6.80;;;;;;;;;;5093042;28;20040;-62
2023/09/07 06:24:46;;;;;;;15.13;8.68;;;;;;;;;;5083574;28;20040;-62
2023/09/07 06:27:12;;;;;;;12.18;8.20;;;;;;;;;;5075340;28;20037;-63
2023/09/07 06:29:38;;;;;;;8.45;6.70;;;;;;;;;;5071249;28;20056;-64
2023/09/07 06:32:04;;;;;;;13.30;7.63;;;;;;;;;;5092585;28;20051;-63
2023/09/07 06:34:30;;;;;;;9.90;7.15;;;;;;;;;;5093270;28;20123;-63
2023/09/07 06:36:56;;;;;;;9.23;7.05;;;;;;;;;;5093853;28;20075;-64
2023/09/07 06:39:22;;;;;;;9.23;6.97;;;;;;;;;;5093195;28;20032;-63
2023/09/07 06:41:48;;;;;;;8.25;6.93;;;;;;;;;;5092780;28;20040;-64
2023/09/07 06:44:15;;;;;;;10.75;6.97;;;;;;;;;;5093380;28;20090;-64
2023/09/07 06:46:41;;;;;;;10.35;7.30;;;;;;;;;;5093548;28;20067;-63
2023/09/07 06:49:07;;;;;;;10.13;7.03;;;;;;;;;;5091969;28;20040;-63
2023/09/07 06:51:33;;;;;;;9.75;6.85;;;;;;;;;;5093438;28;20048;-63
2023/09/07 06:54:00;;;;;;;8.50;6.57;;;;;;;;;;5078674;28;20459;-64
2023/09/07 06:56:31;;;;;;;9.43;7.47;;;;;;;;;;5078299;28;20039;-64
2023/09/07 06:58:57;;;;;;;8.27;7.32;;;;;;;;;;5093391;28;20048;-63
2023/09/07 07:01:23;;;;;;;11.95;7.60;;;;;;;;;;5092355;28;20047;-64
2023/09/07 07:03:50;;;;;;;14.18;8.52;;;;;;;;;;5093662;28;20169;-64
2023/09/07 07:06:15;;;;;;;13.82;7.28;;;;;;;;;;5092982;28;20047;-64
2023/09/07 07:08:42;;;;;;;9.90;7.35;;;;;;;;;;5091416;28;20522;-64
2023/09/07 07:11:08;;;;;;;8.05;7.15;;;;;;;;;;5092996;28;20051;-64
2023/09/07 07:13:34;;;;;;;9.70;7.53;;;;;;;;;;5091246;28;20044;-65
2023/09/07 07:16:00;;;;;;;10.00;7.10;;;;;;;;;;5047826;28;20033;-65
2023/09/07 07:18:26;;;;;;;12.45;8.05;;;;;;;;;;5074250;28;20051;-64
2023/09/07 07:20:52;;;;;;;16.27;7.85;;;;;;;;;;5091741;28;20623;-64
2023/09/07 07:23:18;;;;;;;9.60;7.50;;;;;;;;;;5091615;28;20066;-64
2023/09/07 07:25:44;;;;;;;14.02;7.28;;;;;;;;;;5091869;28;20036;-64
2023/09/07 07:28:10;;;;;;;10.20;8.07;;;;;;;;;;5089906;28;20046;-64
2023/09/07 07:30:38;;;;;;;9.43;7.78;;;;;;;;;;5090404;28;20081;-64
2023/09/07 07:33:04;;;;;;;14.30;7.63;;;;;;;;;;5091791;28;20549;-64
2023/09/07 07:35:37;;;;;;;11.85;7.30;;;;;;;;;;5091602;28;20096;-64
2023/09/07 07:38:03;;;;;;;9.80;6.95;;;;;;;;;;5091043;28;20632;-64
2023/09/07 07:40:30;;;;;;;7.90;6.63;;;;;;;;;;5090891;28;20087;-64
2023/09/07 07:42:56;;;;;;;8.23;6.85;;;;;;;;;;5077332;28;20036;-64
2023/09/07 07:45:22;;;;;;;9.65;7.22;;;;;;;;;;5089293;28;20067;-64
2023/09/07 07:47:49;;;;;;;9.75;6.15;;;;;;;;;;5091838;28;20055;-64
2023/09/07 07:50:15;;;;;;;9.32;6.40;;;;;;;;;;5091722;28;20474;-64
2023/09/07 07:52:41;;;;;;;9.88;6.15;;;;;;;;;;5091238;28;20048;-64
2023/09/07 07:55:07;;;;;;;7.43;6.63;;;;;;;;;;5091539;28;20048;-64
2023/09/07 07:57:33;;;;;;;8.02;6.00;;;;;;;;;;5091411;28;20470;-64
2023/09/07 07:59:59;;;;;;;9.70;6.15;;;;;;;;;;5090867;28;20046;-64
2023/09/07 08:02:26;;;;;;;8.05;6.05;;;;;;;;;;5084336;28;20036;-65
2023/09/07 08:04:52;;;;;;;8.10;5.82;;;;;;;;;;5081247;28;20544;-64
2023/09/07 08:07:18;;;;;;;8.38;6.43;;;;;;;;;;5090325;28;20044;-64
2023/09/07 08:09:44;;;;;;;10.93;6.00;;;;;;;;;;5091327;28;20556;-64
2023/09/07 08:12:10;;;;;;;13.35;5.70;;;;;;;;;;5091156;28;20036;-64
2023/09/07 08:14:36;;;;;;;10.07;5.65;;;;;;;;;;5090252;28;20044;-64
2023/09/07 08:17:02;;;;;;;8.93;5.50;;;;;;;;;;5088105;28;20035;-64
2023/09/07 08:19:29;;;;;;;7.45;5.03;;;;;;;;;;5090188;28;20070;-65
2023/09/07 08:21:55;;;;;;;7.30;5.63;;;;;;;;;;5090000;28;20044;-64
2023/09/07 08:24:21;;;;;;;10.85;4.90;;;;;;;;;;5090924;28;20093;-63
2023/09/07 08:26:51;;;;;;;10.05;5.32;;;;;;;;;;5089780;28;20040;-64
2023/09/07 08:29:17;;;;;;;6.03;4.63;;;;;;;;;;5090108;28;20063;-64
2023/09/07 08:31:45;;;;;;;6.38;4.93;;;;;;;;;;5091286;28;20649;-64
2023/09/07 08:34:11;;;;;;;8.32;5.57;;;;;;;;;;5090742;28;20105;-64
2023/09/07 08:36:38;;;;;;;7.93;4.55;;;;;;;;;;5090548;28;20042;-64
2023/09/07 08:39:10;;;;;;;6.75;5.13;;;;;;;;;;5090019;28;20036;-65
2023/09/07 08:41:37;;;;;;;;;;;;;;;;;;5091332;28;20046;-64
2023/09/07 08:44:04;;;;;;;6.63;4.70;;;;;;;;;;5084866;28;20031;-63
2023/09/07 08:46:31;;;;;;;9.48;4.80;;;;;;;;;;5090490;28;20436;-64
2023/09/07 08:49:03;;;;;;;10.48;4.82;;;;;;;;;;5090371;28;20040;-63
2023/09/07 08:51:29;;;;;;;;;;;;;;;;;;5090390;28;20056;-63
2023/09/07 08:53:56;;;;;;;6.30;4.97;;;;;;;;;;5090736;28;19951;-64
2023/09/07 08:56:23;;;;;;;9.27;4.53;;;;;;;;;;5089918;28;20044;-64
2023/09/07 08:58:52;;;;;;;5.97;4.22;;;;;;;;;;5089796;28;20071;-64
2023/09/07 09:01:18;;;;;;;8.10;4.57;;;;;;;;;;5086088;28;20055;-63
2023/09/07 09:03:46;;;;;;;5.88;5.00;;;;;;;;;;5075202;28;20040;-64
2023/09/07 09:06:12;;;;;;;7.03;5.00;;;;;;;;;;5080378;28;20066;-63
2023/09/07 09:08:54;;;;;;;6.70;4.60;;;;;;;;;;5074679;28;20044;-64
2023/09/07 09:11:21;;;;;;;8.02;5.63;;;;;;;;;;5078504;28;20052;-63
2023/09/07 09:13:48;;;;;;;8.77;4.53;;;;;;;;;;5088036;28;20048;-63
2023/09/07 09:16:14;;;;;;;9.15;5.43;;;;;;;;;;5083063;28;20051;-64
2023/09/07 09:18:52;;;;;;;10.75;5.10;;;;;;;;;;5081502;28;20574;-64
2023/09/07 09:21:18;;;;;;;7.90;5.32;;;;;;;;;;5079280;28;20063;-64
2023/09/07 09:23:44;;;;;;;6.85;4.53;;;;;;;;;;5083473;28;20551;-64
2023/09/07 09:26:11;;;;;;;6.63;4.40;;;;;;;;;;5088598;28;20352;-64
2023/09/07 09:28:37;;;;;;;8.13;4.97;;;;;;;;;;5088621;28;20044;-65
2023/09/07 09:31:03;;;;;;;5.80;4.35;;;;;;;;;;5075998;28;20059;-65
2023/09/07 09:33:36;;;;;;;8.60;4.85;;;;;;;;;;5087798;28;20045;-63
2023/09/07 09:36:02;;;;;;;6.13;4.20;;;;;;;;;;5088010;28;20093;-63
2023/09/07 09:38:29;;;;;;;10.20;4.90;;;;;;;;;;5087883;28;20040;-63
2023/09/07 09:40:55;;;;;;;6.78;4.30;;;;;;;;;;5078441;28;20122;-64
2023/09/07 09:43:22;;;;;;;7.43;5.30;;;;;;;;;;5082473;28;20048;-64
2023/09/07 09:45:50;;;;;;;5.75;4.85;;;;;;;;;;5078951;28;20663;-64
2023/09/07 09:48:17;;;;;;;9.75;5.20;;;;;;;;;;5078970;28;20052;-63
2023/09/07 09:50:44;;;;;;;6.03;4.70;;;;;;;;;;5084016;28;20044;-64
2023/09/07 09:53:14;;;;;;;8.73;4.38;;;;;;;;;;5086593;28;20114;-63
2023/09/07 09:55:40;;;;;;;5.85;4.43;;;;;;;;;;5080368;28;20043;-65
2023/09/07 09:58:06;;;;;;;10.02;5.28;;;;;;;;;;5087891;28;20044;-66
2023/09/07 10:00:37;;;;;;;6.32;4.15;;;;;;;;;;5085975;28;20044;-65
2023/09/07 10:03:03;;;;;;;8.70;4.38;;;;;;;;;;5087773;28;20076;-64
2023/09/07 10:05:31;;;;;;;5.55;4.53;;;;;;;;;;5071741;28;20094;-64
2023/09/07 10:08:01;;;;;;;5.88;4.70;;;;;;;;;;5083441;28;20391;-65
2023/09/07 10:10:32;;;;;;;7.85;4.90;;;;;;;;;;5085444;28;20058;-65
2023/09/07 10:12:58;;;;;;;5.60;4.43;;;;;;;;;;5089526;28;20150;-65
2023/09/07 10:15:25;;;;;;;6.40;4.07;;;;;;;;;;5084768;28;20071;-65
2023/09/07 10:18:03;;;;;;;4.80;3.78;;;;;;;;;;5079775;28;20048;-64
2023/09/07 10:20:29;;;;;;;8.70;4.32;;;;;;;;;;5081492;28;20471;-64
2023/09/07 10:23:04;;;;;;;6.95;4.05;;;;;;;;;;5075187;28;20048;-64
2023/09/07 10:25:32;;;;;;;7.22;4.30;;;;;;;;;;5080300;28;20064;-63
2023/09/07 10:27:59;;;;;;;8.48;5.32;;;;;;;;;;5080893;28;20055;-63
2023/09/07 10:30:26;;;;;;;10.88;4.95;;;;;;;;;;5078741;28;20052;-64
2023/09/07 10:32:51;;;;;;;6.70;4.35;;;;;;;;;;5085812;28;20052;-65
2023/09/07 10:35:21;;;;;;;7.30;4.55;;;;;;;;;;5090471;28;20047;-64
2023/09/07 10:37:48;;;;;;;8.02;3.90;;;;;;;;;;5089203;28;20384;-64
2023/09/07 10:40:19;;;;;;;6.00;4.55;;;;;;;;;;5084198;28;20051;-64
2023/09/07 10:42:45;;;;;;;6.70;4.72;;;;;;;;;;5087996;28;20068;-64
2023/09/07 10:45:15;;;;;;;7.38;4.22;;;;;;;;;;5093203;28;20147;-64
2023/09/07 10:47:42;;;;;;;6.30;4.38;;;;;;;;;;5091228;28;20048;-63
2023/09/07 10:50:09;;;;;;;5.75;4.18;;;;;;;;;;5092326;28;20044;-63
2023/09/07 10:52:35;;;;;;;7.88;4.18;;;;;;;;;;5090770;28;20063;-63
2023/09/07 10:55:01;;;;;;;6.15;3.78;;;;;;;;;;5091640;28;20078;-63
2023/09/07 10:57:27;;;;;;;6.82;4.35;;;;;;;;;;5092630;28;20160;-63
2023/09/07 10:59:55;;;;;;;5.88;4.15;;;;;;;;;;5091737;28;20072;-63
2023/09/07 11:02:21;;;;;;;4.50;3.83;;;;;;;;;;5092352;28;20063;-63
2023/09/07 11:04:47;;;;;;;5.35;4.30;;;;;;;;;;5086677;28;20093;-63
2023/09/07 11:07:13;;;;;;;6.53;3.75;;;;;;;;;;5090011;28;20044;-63
2023/09/07 11:09:42;;;;;;;8.82;4.72;;;;;;;;;;5093176;28;20052;-63
2023/09/07 11:12:09;;;;;;;6.35;4.05;;;;;;;;;;5091747;28;20040;-63
2023/09/07 11:14:35;;;;;;;7.38;4.13;;;;;;;;;;5092684;28;20048;-63
2023/09/07 11:17:04;;;;;;;4.82;4.05;;;;;;;;;;5086801;28;20036;-63
2023/09/07 11:19:33;;;;;;;5.72;4.25;;;;;;;;;;5082968;28;20048;-64
2023/09/07 11:21:59;;;;;;;7.50;4.10;;;;;;;;;;5089475;28;20073;-64
2023/09/07 11:24:26;;;;;;;4.53;4.10;;;;;;;;;;5076486;28;20375;-64
2023/09/07 11:26:52;;;;;;;8.25;4.82;;;;;;;;;;5085249;28;20044;-64
2023/09/07 11:29:21;;;;;;;5.93;3.88;;;;;;;;;;5084718;28;20082;-64
2023/09/07 11:31:47;;;;;;;6.60;4.15;;;;;;;;;;5088471;28;20048;-64
2023/09/07 11:34:13;;;;;;;10.85;5.03;;;;;;;;;;5075669;28;20056;-64
2023/09/07 11:36:40;;;;;;;6.35;4.10;;;;;;;;;;5088730;28;20474;-63
2023/09/07 11:39:12;;;;;;;6.10;4.47;;;;;;;;;;5085382;28;20394;-63
2023/09/07 11:41:42;;;;;;;6.40;4.07;;;;;;;;;;5088307;28;20154;-63
2023/09/07 11:44:08;;;;;;;6.25;3.63;;;;;;;;;;5090496;28;20036;-63
2023/09/07 11:46:34;;;;;;;6.47;4.22;;;;;;;;;;5077926;28;20055;-63
2023/09/07 11:49:00;;;;;;;6.20;3.92;;;;;;;;;;5089637;28;20036;-64
2023/09/07 11:51:26;;;;;;;7.07;4.43;;;;;;;;;;5082301;28;20068;-64
2023/09/07 11:53:52;;;;;;;7.72;3.90;;;;;;;;;;5088775;28;20051;-65
2023/09/07 11:56:19;;;;;;;5.55;4.07;;;;;;;;;;5080337;28;20044;-65
2023/09/07 11:58:45;;;;;;;5.20;3.97;;;;;;;;;;5085307;28;20347;-65
2023/09/07 12:01:11;;;;;;;14.30;4.13;;;;;;;;;;5089448;28;20070;-65
2023/09/07 12:03:37;;;;;;;6.35;4.05;;;;;;;;;;5086394;28;20064;-64
2023/09/07 12:06:03;;;;;;;5.13;3.60;;;;;;;;;;5090755;28;20105;-63
2023/09/07 12:08:29;;;;;;;5.75;3.75;;;;;;;;;;5089759;28;20089;-63
2023/09/07 12:10:55;;;;;;;6.07;3.90;;;;;;;;;;5081708;28;20032;-63
2023/09/07 12:13:21;;;;;;;8.32;3.72;;;;;;;;;;5071337;28;20032;-64
2023/09/07 12:15:47;;;;;;;4.65;3.83;;;;;;;;;;5080352;28;20093;-64
2023/09/07 12:18:13;;;;;;;7.90;4.07;;;;;;;;;;5077647;28;20446;-65
2023/09/07 12:20:40;;;;;;;7.13;3.55;;;;;;;;;;5078230;28;20106;-64
2023/09/07 12:23:06;;;;;;;6.10;3.88;;;;;;;;;;5079525;28;20505;-64
2023/09/07 12:25:32;;;;;;;7.88;3.92;;;;;;;;;;5088430;28;20043;-64
2023/09/07 12:27:58;;;;;;;5.80;3.80;;;;;;;;;;5081454;28;20043;-64
2023/09/07 12:30:24;;;;;;;4.25;3.35;;;;;;;;;;5088539;28;20383;-64
2023/09/07 12:32:50;;;;;;;5.07;3.20;;;;;;;;;;5085409;28;20097;-64
2023/09/07 12:35:16;;;;;;;5.40;3.13;;;;;;;;;;5080352;28;20075;-64
2023/09/07 12:37:42;;;;;;;5.18;3.30;;;;;;;;;;5080236;28;20043;-64
2023/09/07 12:40:12;;;;;;;4.60;3.40;;;;;;;;;;5085824;28;20085;-65
2023/09/07 12:42:45;;;;;;;4.70;3.58;;;;;;;;;;5087513;28;20121;-64
2023/09/07 12:45:12;;;;;;;3.97;3.58;;;;;;;;;;5074900;28;20687;-64
2023/09/07 12:47:39;;;;;;;7.53;3.30;;;;;;;;;;5088412;28;20078;-63
2023/09/07 12:50:06;;;;;;;8.80;3.75;;;;;;;;;;5090432;28;20040;-64
2023/09/07 12:52:32;;;;;;;5.25;4.10;;;;;;;;;;5090352;28;20051;-64
2023/09/07 12:54:58;;;;;;;4.18;3.75;;;;;;;;;;5090531;28;20435;-64
2023/09/07 12:57:24;;;;;;;6.93;3.30;;;;;;;;;;5090337;28;20513;-64
2023/09/07 12:59:50;;;;;;;6.95;3.50;;;;;;;;;;5089964;28;20048;-64
2023/09/07 13:02:16;;;;;;;6.32;3.38;;;;;;;;;;5079524;28;20047;-64
2023/09/07 13:04:42;;;;;;;6.25;3.40;;;;;;;;;;5090026;28;20396;-63
2023/09/07 13:07:09;;;;;;;6.00;3.50;;;;;;;;;;5082499;28;20041;-65
2023/09/07 13:09:35;;;;;;;9.52;3.90;;;;;;;;;;5084704;28;20088;-64
2023/09/07 13:12:01;;;;;;;5.90;3.50;;;;;;;;;;5090053;28;20040;-64
2023/09/07 13:14:27;;;;;;;4.68;3.30;;;;;;;;;;5089256;28;20068;-64
2023/09/07 13:16:54;;;;;;;10.00;3.78;;;;;;;;;;5087121;28;20052;-64
2023/09/07 13:19:20;;;;;;;6.95;3.80;;;;;;;;;;5087040;28;20044;-64
2023/09/07 13:21:46;;;;;;;6.07;4.13;;;;;;;;;;5087702;28;20604;-64
2023/09/07 13:24:12;;;;;;;4.68;3.60;;;;;;;;;;5085958;28;20048;-64
2023/09/07 13:26:38;;;;;;;7.57;3.72;;;;;;;;;;5090585;28;20040;-65
2023/09/07 13:29:04;;;;;;;6.78;3.50;;;;;;;;;;5089721;28;20044;-64
2023/09/07 13:31:30;;;;;;;3.97;3.55;;;;;;;;;;5089718;28;20086;-64
2023/09/07 13:33:56;;;;;;;3.83;3.40;;;;;;;;;;5089962;28;20040;-63
2023/09/07 13:36:22;;;;;;;9.43;3.40;;;;;;;;;;5090004;28;20596;-63
2023/09/07 13:38:48;;;;;;;5.30;3.53;;;;;;;;;;5090427;28;20032;-63
2023/09/07 13:41:14;;;;;;;6.35;4.00;;;;;;;;;;5088715;28;20131;-64
2023/09/07 13:43:40;;;;;;;4.35;3.40;;;;;;;;;;5088475;28;20043;-66
2023/09/07 13:46:06;;;;;;;6.18;3.80;;;;;;;;;;5093967;28;20039;-65
2023/09/07 13:48:33;;;;;;;6.18;3.50;;;;;;;;;;5077569;28;20043;-65
2023/09/07 13:50:59;;;;;;;4.63;3.67;;;;;;;;;;5094634;28;20101;-65
2023/09/07 13:53:25;;;;;;;7.28;3.40;;;;;;;;;;5092257;28;20623;-66
2023/09/07 13:55:51;;;;;;;6.72;2.92;;;;;;;;;;5093935;28;20078;-66
2023/09/07 13:58:17;;;;;;;5.32;3.63;;;;;;;;;;5093905;28;20044;-66
2023/09/07 14:00:43;;;;;;;7.43;3.20;;;;;;;;;;5093876;28;20078;-65
2023/09/07 14:03:09;;;;;;;6.03;3.47;;;;;;;;;;5093748;28;20044;-64
2023/09/07 14:05:35;;;;;;;8.10;3.20;;;;;;;;;;5093989;28;20048;-65
2023/09/07 14:08:01;;;;;;;4.78;3.22;;;;;;;;;;5093646;28;20044;-65
2023/09/07 14:10:27;;;;;;;9.10;3.35;;;;;;;;;;5093239;28;20044;-64
2023/09/07 14:12:53;;;;;;;19.88;3.83;;;;;;;;;;5093577;28;20093;-64
2023/09/07 14:15:19;;;;;;;4.93;3.22;;;;;;;;;;5094085;28;20085;-64
2023/09/07 14:17:45;;;;;;;6.22;3.20;;;;;;;;;;5090200;28;20040;-64
2023/09/07 14:20:12;;;;;;;5.28;3.70;;;;;;;;;;5093543;28;20040;-64
2023/09/07 14:22:38;;;;;;;5.85;3.30;;;;;;;;;;5093524;28;20080;-64
2023/09/07 14:25:04;;;;;;;6.57;3.42;;;;;;;;;;5092472;28;20043;-64
2023/09/07 14:27:30;;;;;;;7.50;3.58;;;;;;;;;;5093915;28;20043;-64
2023/09/07 14:29:56;;;;;;;5.18;3.63;;;;;;;;;;5092627;28;20097;-63
2023/09/07 14:32:22;;;;;;;4.82;3.42;;;;;;;;;;5092840;28;20126;-64
2023/09/07 14:34:48;;;;;;;6.63;3.40;;;;;;;;;;5093374;28;20085;-64
2023/09/07 14:37:14;;;;;;;6.57;3.40;;;;;;;;;;5087996;28;20130;-64
2023/09/07 14:39:46;;;;;;;6.82;3.22;;;;;;;;;;5091126;28;20111;-64